GCBZE EGCM-EGCB
Flight info
| Callsign | GCBZE |
|---|---|
| Flight time | 0h 32m |
| Altitude | 2000 |
| Route | VFR |
| Aircraft | R44/L-VGD/A |
Departure
| Time | 2026-05-04 17:59 |
|---|---|
| Airport | Leeds East Airport (EGCM) |
Arrival
| Time | 2026-05-04 18:32 |
|---|---|
| Airport | Manchester Barton Aerodrome (EGCB) |
| Time | Latitude | Longitude | Altitude | Speed | Heading |
|---|---|---|---|---|---|
| 2026-05-04 17:50 | 53.83366 | -1.20196 | 25 ft | 0 kts | 179° |
| 2026-05-04 17:58 | 53.83363 | -1.20198 | 28 ft | 3 kts | 172° |
| 2026-05-04 17:58 | 53.83310 | -1.20186 | 43 ft | 6 kts | 149° |
| 2026-05-04 17:58 | 53.83289 | -1.20165 | 36 ft | 7 kts | 169° |
| 2026-05-04 17:58 | 53.83373 | -1.19733 | 34 ft | 70 kts | 55° |
| 2026-05-04 17:59 | 53.83641 | -1.19122 | 314 ft | 62 kts | 61° |
| 2026-05-04 17:59 | 53.83900 | -1.18447 | 472 ft | 78 kts | 58° |
| 2026-05-04 17:59 | 53.84032 | -1.16883 | 676 ft | 83 kts | 148° |
| 2026-05-04 18:00 | 53.83470 | -1.16688 | 808 ft | 81 kts | 170° |
| 2026-05-04 18:00 | 53.82991 | -1.17065 | 774 ft | 89 kts | 251° |
| 2026-05-04 18:00 | 53.82769 | -1.18003 | 837 ft | 76 kts | 234° |
| 2026-05-04 18:00 | 53.82431 | -1.18904 | 733 ft | 94 kts | 235° |
| 2026-05-04 18:01 | 53.82105 | -1.19926 | 764 ft | 93 kts | 239° |
| 2026-05-04 18:01 | 53.81906 | -1.20831 | 1078 ft | 80 kts | 249° |
| 2026-05-04 18:01 | 53.81742 | -1.21792 | 1158 ft | 87 kts | 251° |
| 2026-05-04 18:02 | 53.81370 | -1.24026 | 1028 ft | 115 kts | 244° |
| 2026-05-04 18:02 | 53.81039 | -1.25245 | 1022 ft | 116 kts | 238° |
| 2026-05-04 18:02 | 53.80632 | -1.26427 | 953 ft | 114 kts | 230° |
| 2026-05-04 18:02 | 53.80279 | -1.27521 | 960 ft | 100 kts | 234° |
| 2026-05-04 18:03 | 53.79921 | -1.28505 | 994 ft | 98 kts | 232° |
| 2026-05-04 18:03 | 53.79591 | -1.29526 | 997 ft | 95 kts | 233° |
| 2026-05-04 18:03 | 53.79246 | -1.30495 | 971 ft | 97 kts | 235° |
| 2026-05-04 18:03 | 53.78900 | -1.31548 | 849 ft | 106 kts | 235° |
| 2026-05-04 18:04 | 53.78580 | -1.32611 | 888 ft | 96 kts | 237° |
| 2026-05-04 18:04 | 53.78281 | -1.33591 | 891 ft | 96 kts | 237° |
| 2026-05-04 18:04 | 53.77647 | -1.35613 | 881 ft | 100 kts | 239° |
| 2026-05-04 18:05 | 53.77349 | -1.36724 | 851 ft | 97 kts | 239° |
| 2026-05-04 18:05 | 53.77179 | -1.37266 | 1265 ft | 49 kts | 242° |
| 2026-05-04 18:05 | 53.76972 | -1.37913 | 1291 ft | 65 kts | 242° |
| 2026-05-04 18:05 | 53.76751 | -1.38645 | 1378 ft | 77 kts | 239° |
| 2026-05-04 18:06 | 53.76338 | -1.40486 | 1483 ft | 89 kts | 249° |
| 2026-05-04 18:06 | 53.76058 | -1.41478 | 1442 ft | 98 kts | 230° |
| 2026-05-04 18:06 | 53.75608 | -1.42490 | 1218 ft | 115 kts | 226° |
| 2026-05-04 18:07 | 53.75232 | -1.43366 | 1538 ft | 82 kts | 236° |
| 2026-05-04 18:07 | 53.74928 | -1.44185 | 1657 ft | 79 kts | 231° |
| 2026-05-04 18:07 | 53.74606 | -1.45069 | 1652 ft | 91 kts | 233° |
| 2026-05-04 18:07 | 53.74342 | -1.46055 | 1676 ft | 96 kts | 243° |
| 2026-05-04 18:08 | 53.74102 | -1.47135 | 1641 ft | 101 kts | 237° |
| 2026-05-04 18:08 | 53.73795 | -1.48119 | 1813 ft | 86 kts | 239° |
| 2026-05-04 18:08 | 53.73538 | -1.49078 | 1834 ft | 96 kts | 243° |
| 2026-05-04 18:08 | 53.73365 | -1.50177 | 1854 ft | 97 kts | 255° |
| 2026-05-04 18:09 | 53.73382 | -1.52614 | 1742 ft | 111 kts | 273° |
| 2026-05-04 18:09 | 53.73331 | -1.55094 | 1690 ft | 96 kts | 238° |
| 2026-05-04 18:10 | 53.73029 | -1.56025 | 1814 ft | 90 kts | 234° |
| 2026-05-04 18:10 | 53.72641 | -1.56989 | 1663 ft | 105 kts | 233° |
| 2026-05-04 18:10 | 53.72282 | -1.58011 | 1723 ft | 97 kts | 238° |
| 2026-05-04 18:10 | 53.71921 | -1.58979 | 1767 ft | 95 kts | 233° |
| 2026-05-04 18:11 | 53.71553 | -1.59908 | 1790 ft | 98 kts | 234° |
| 2026-05-04 18:11 | 53.71186 | -1.60808 | 1877 ft | 92 kts | 233° |
| 2026-05-04 18:11 | 53.70830 | -1.61721 | 1889 ft | 95 kts | 236° |
| 2026-05-04 18:11 | 53.70504 | -1.62608 | 1548 ft | 104 kts | 215° |
| 2026-05-04 18:12 | 53.70142 | -1.63433 | 1515 ft | 71 kts | 252° |
| 2026-05-04 18:12 | 53.70066 | -1.64131 | 1838 ft | 50 kts | 263° |
| 2026-05-04 18:12 | 53.70018 | -1.64787 | 1956 ft | 64 kts | 260° |
| 2026-05-04 18:12 | 53.69983 | -1.65623 | 1908 ft | 88 kts | 268° |
| 2026-05-04 18:13 | 53.69980 | -1.66589 | 2039 ft | 75 kts | 243° |
| 2026-05-04 18:13 | 53.69632 | -1.67324 | 2011 ft | 91 kts | 231° |
| 2026-05-04 18:13 | 53.68886 | -1.68843 | 2211 ft | 88 kts | 232° |
| 2026-05-04 18:14 | 53.68570 | -1.69792 | 2155 ft | 97 kts | 240° |
| 2026-05-04 18:14 | 53.68253 | -1.70767 | 2220 ft | 92 kts | 241° |
| 2026-05-04 18:14 | 53.67943 | -1.71772 | 2216 ft | 94 kts | 241° |
| 2026-05-04 18:15 | 53.67437 | -1.73632 | 2430 ft | 86 kts | 246° |
| 2026-05-04 18:15 | 53.66798 | -1.75817 | 2278 ft | 81 kts | 239° |
| 2026-05-04 18:15 | 53.66524 | -1.76723 | 2254 ft | 90 kts | 247° |
| 2026-05-04 18:16 | 53.66368 | -1.77849 | 2076 ft | 109 kts | 253° |
| 2026-05-04 18:16 | 53.66065 | -1.78850 | 2243 ft | 81 kts | 231° |
| 2026-05-04 18:16 | 53.65712 | -1.79739 | 2193 ft | 91 kts | 233° |
| 2026-05-04 18:17 | 53.65011 | -1.81759 | 2092 ft | 106 kts | 245° |
| 2026-05-04 18:17 | 53.64739 | -1.82939 | 2050 ft | 110 kts | 246° |
| 2026-05-04 18:17 | 53.64187 | -1.85241 | 2076 ft | 105 kts | 245° |
| 2026-05-04 18:18 | 53.63926 | -1.86344 | 2125 ft | 98 kts | 241° |
| 2026-05-04 18:18 | 53.63666 | -1.87317 | 2203 ft | 95 kts | 247° |
| 2026-05-04 18:18 | 53.63401 | -1.88385 | 2167 ft | 99 kts | 246° |
| 2026-05-04 18:18 | 53.63144 | -1.89461 | 2136 ft | 99 kts | 248° |
| 2026-05-04 18:19 | 53.62662 | -1.91682 | 2111 ft | 94 kts | 250° |
| 2026-05-04 18:19 | 53.62449 | -1.92759 | 2059 ft | 101 kts | 250° |
| 2026-05-04 18:19 | 53.62200 | -1.93866 | 2035 ft | 101 kts | 247° |
| 2026-05-04 18:20 | 53.61968 | -1.94988 | 2007 ft | 103 kts | 249° |
| 2026-05-04 18:20 | 53.61752 | -1.96156 | 1982 ft | 103 kts | 252° |
| 2026-05-04 18:20 | 53.61550 | -1.97298 | 2026 ft | 97 kts | 251° |
| 2026-05-04 18:20 | 53.61370 | -1.98413 | 2004 ft | 100 kts | 254° |
| 2026-05-04 18:21 | 53.61215 | -1.99548 | 2009 ft | 97 kts | 256° |
| 2026-05-04 18:21 | 53.61029 | -2.00619 | 2059 ft | 96 kts | 251° |
| 2026-05-04 18:21 | 53.60826 | -2.01692 | 2071 ft | 99 kts | 250° |
| 2026-05-04 18:21 | 53.60619 | -2.02809 | 2054 ft | 101 kts | 251° |
| 2026-05-04 18:22 | 53.60449 | -2.03963 | 2058 ft | 100 kts | 256° |
| 2026-05-04 18:22 | 53.60301 | -2.05119 | 2046 ft | 102 kts | 248° |
| 2026-05-04 18:22 | 53.60032 | -2.06180 | 2070 ft | 103 kts | 245° |
| 2026-05-04 18:22 | 53.59779 | -2.07332 | 2019 ft | 106 kts | 255° |
| 2026-05-04 18:23 | 53.59523 | -2.08539 | 1983 ft | 112 kts | 249° |
| 2026-05-04 18:23 | 53.59251 | -2.09792 | 1937 ft | 112 kts | 251° |
| 2026-05-04 18:23 | 53.58985 | -2.10970 | 1723 ft | 102 kts | 247° |
| 2026-05-04 18:23 | 53.58746 | -2.12069 | 1510 ft | 106 kts | 253° |
| 2026-05-04 18:24 | 53.58517 | -2.13256 | 1556 ft | 109 kts | 250° |
| 2026-05-04 18:24 | 53.58210 | -2.14447 | 1492 ft | 111 kts | 244° |
| 2026-05-04 18:24 | 53.57752 | -2.15483 | 1512 ft | 110 kts | 234° |
| 2026-05-04 18:24 | 53.57307 | -2.16552 | 1537 ft | 112 kts | 238° |
| 2026-05-04 18:25 | 53.56858 | -2.17684 | 1379 ft | 123 kts | 237° |
| 2026-05-04 18:25 | 53.56412 | -2.18871 | 1379 ft | 118 kts | 242° |
| 2026-05-04 18:25 | 53.56008 | -2.20063 | 1318 ft | 115 kts | 242° |
| 2026-05-04 18:25 | 53.55575 | -2.21170 | 1302 ft | 111 kts | 239° |
| 2026-05-04 18:26 | 53.55163 | -2.22249 | 1320 ft | 110 kts | 240° |
| 2026-05-04 18:26 | 53.54722 | -2.23315 | 1262 ft | 111 kts | 234° |
| 2026-05-04 18:26 | 53.54257 | -2.24367 | 1214 ft | 113 kts | 232° |
| 2026-05-04 18:26 | 53.53762 | -2.25399 | 1173 ft | 110 kts | 232° |
| 2026-05-04 18:27 | 53.53341 | -2.26372 | 1248 ft | 103 kts | 237° |
| 2026-05-04 18:27 | 53.52944 | -2.27429 | 1136 ft | 112 kts | 239° |
| 2026-05-04 18:27 | 53.52536 | -2.28606 | 999 ft | 118 kts | 240° |
| 2026-05-04 18:27 | 53.52150 | -2.29795 | 1002 ft | 110 kts | 241° |
| 2026-05-04 18:28 | 53.51817 | -2.30821 | 1208 ft | 90 kts | 244° |
| 2026-05-04 18:28 | 53.51515 | -2.31775 | 1199 ft | 96 kts | 245° |
| 2026-05-04 18:28 | 53.51231 | -2.32845 | 1178 ft | 99 kts | 249° |
| 2026-05-04 18:28 | 53.50957 | -2.33898 | 844 ft | 102 kts | 244° |
| 2026-05-04 18:29 | 53.50658 | -2.35008 | 754 ft | 103 kts | 245° |
| 2026-05-04 18:29 | 53.50372 | -2.36162 | 673 ft | 109 kts | 245° |
| 2026-05-04 18:29 | 53.50086 | -2.37342 | 629 ft | 108 kts | 246° |
| 2026-05-04 18:29 | 53.49815 | -2.38511 | 666 ft | 105 kts | 248° |
| 2026-05-04 18:30 | 53.49243 | -2.40724 | 695 ft | 109 kts | 239° |
| 2026-05-04 18:30 | 53.48739 | -2.41721 | 576 ft | 107 kts | 244° |
| 2026-05-04 18:30 | 53.48396 | -2.42756 | 662 ft | 99 kts | 205° |
| 2026-05-04 18:31 | 53.47684 | -2.42663 | 609 ft | 108 kts | 171° |
| 2026-05-04 18:31 | 53.46976 | -2.42362 | 654 ft | 103 kts | 131° |
| 2026-05-04 18:31 | 53.46975 | -2.41389 | 477 ft | 77 kts | 79° |
| 2026-05-04 18:31 | 53.47042 | -2.40545 | 331 ft | 75 kts | 76° |
| 2026-05-04 18:32 | 53.47143 | -2.39700 | 120 ft | 71 kts | 71° |
| 2026-05-04 18:32 | 53.47246 | -2.39168 | 91 ft | 17 kts | 84° |
| 2026-05-04 18:32 | 53.47242 | -2.39012 | 76 ft | 10 kts | 156° |
| 2026-05-04 18:32 | 53.47213 | -2.38964 | 83 ft | 20 kts | 163° |
| 2026-05-04 18:33 | 53.47049 | -2.38905 | 96 ft | 21 kts | 155° |
| 2026-05-04 18:33 | 53.46976 | -2.38881 | 87 ft | 3 kts | 138° |
| 2026-05-04 18:33 | 53.46973 | -2.38885 | 125 ft | 9 kts | 153° |
| 2026-05-04 18:33 | 53.46989 | -2.38868 | 87 ft | 1 kts | 133° |
| 2026-05-04 18:34 | 53.46983 | -2.38857 | 67 ft | 0 kts | 126° |
| 2026-05-04 18:34 | 53.46985 | -2.38886 | 75 ft | 4 kts | 140° |
| 2026-05-04 18:34 | 53.46972 | -2.38878 | 72 ft | 0 kts | 129° |